createdAt,value
2019-02-09T00:00:45.031Z,7.47
2019-02-09T00:03:13.609Z,6.90
2019-02-09T00:05:42.241Z,7.40
2019-02-09T00:08:11.663Z,7.40
2019-02-09T00:10:40.496Z,6.83
2019-02-09T00:13:09.053Z,6.97
2019-02-09T00:15:37.688Z,7.10
2019-02-09T00:18:07.259Z,7.00
2019-02-09T00:20:35.875Z,6.87
2019-02-09T00:23:04.997Z,6.17
2019-02-09T00:25:33.759Z,7.20
2019-02-09T00:28:02.372Z,7.33
2019-02-09T00:30:30.991Z,7.00
2019-02-09T00:32:59.663Z,7.30
2019-02-09T00:35:28.301Z,7.00
2019-02-09T00:37:56.857Z,7.30
2019-02-09T00:40:29.946Z,7.13
2019-02-09T00:42:58.562Z,7.27
2019-02-09T00:45:27.885Z,6.90
2019-02-09T00:47:56.681Z,6.57
2019-02-09T00:50:25.614Z,6.57
2019-02-09T00:52:54.343Z,7.97
2019-02-09T00:55:27.692Z,8.90
2019-02-09T00:57:56.516Z,6.73
2019-02-09T01:00:32.848Z,6.13
2019-02-09T01:03:01.634Z,6.03
2019-02-09T01:05:41.463Z,7.60
2019-02-09T01:08:10.214Z,6.77
2019-02-09T01:10:38.836Z,6.50
2019-02-09T01:13:07.606Z,5.60
2019-02-09T01:15:36.636Z,5.50
2019-02-09T01:18:05.830Z,6.83
2019-02-09T01:20:34.558Z,6.00
2019-02-09T01:23:03.287Z,4.70
2019-02-09T01:25:31.900Z,5.30
2019-02-09T01:28:00.708Z,5.13
2019-02-09T01:30:30.131Z,5.03
2019-02-09T01:32:58.953Z,4.70
2019-02-09T01:35:27.610Z,4.90
2019-02-09T01:37:56.334Z,5.30
2019-02-09T01:40:27.196Z,5.30
2019-02-09T01:42:56.221Z,5.07
2019-02-09T01:45:29.850Z,5.10
2019-02-09T01:47:58.618Z,4.80
2019-02-09T01:50:32.007Z,5.53
2019-02-09T01:53:01.033Z,6.27
2019-02-09T01:55:29.895Z,5.70
2019-02-09T01:57:59.323Z,6.07
2019-02-09T02:00:30.360Z,5.50
2019-02-09T02:02:59.445Z,7.20
2019-02-09T02:05:28.443Z,7.90
2019-02-09T02:07:56.928Z,7.17
2019-02-09T02:10:35.904Z,8.00
2019-02-09T02:13:06.638Z,8.90
2019-02-09T02:15:35.460Z,10.20
2019-02-09T02:18:04.905Z,10.77
2019-02-09T02:20:33.962Z,9.90
2019-02-09T02:23:02.515Z,8.77
2019-02-09T02:25:31.284Z,8.10
2019-02-09T02:27:59.905Z,10.13
2019-02-09T02:30:36.860Z,9.47
2019-02-09T02:33:06.583Z,8.17
2019-02-09T02:35:35.514Z,7.43
2019-02-09T02:38:04.373Z,7.63
2019-02-09T02:40:32.989Z,7.30
2019-02-09T02:43:01.606Z,6.43
2019-02-09T02:45:30.517Z,5.70
2019-02-09T02:47:59.233Z,6.63
2019-02-09T02:50:27.963Z,8.93
2019-02-09T02:52:56.744Z,6.87
2019-02-09T02:55:27.717Z,6.87
2019-02-09T02:57:56.359Z,6.57
2019-02-09T03:00:32.454Z,7.30
2019-02-09T03:02:57.387Z,7.83
2019-02-09T03:05:26.288Z,7.40
2019-02-09T03:07:55.795Z,7.73
2019-02-09T03:10:24.523Z,7.73
2019-02-09T03:12:53.487Z,7.30
2019-02-09T03:15:27.431Z,7.47
2019-02-09T03:17:56.243Z,7.07
2019-02-09T03:20:24.894Z,8.10
2019-02-09T03:22:53.527Z,6.73
2019-02-09T03:25:25.117Z,6.60
2019-02-09T03:27:53.779Z,6.50
2019-02-09T03:30:24.630Z,6.57
2019-02-09T03:32:53.282Z,7.33
2019-02-09T03:35:22.401Z,8.13
2019-02-09T03:37:51.023Z,7.67
2019-02-09T03:40:29.145Z,7.40
2019-02-09T03:42:57.899Z,7.23
2019-02-09T03:45:33.634Z,9.43
2019-02-09T03:48:02.768Z,7.87
2019-02-09T03:50:32.707Z,7.93
2019-02-09T03:53:01.800Z,8.40
2019-02-09T03:55:30.524Z,7.17
2019-02-09T03:57:59.166Z,11.43
2019-02-09T04:00:32.914Z,7.43
2019-02-09T04:03:03.392Z,7.00
2019-02-09T04:05:32.027Z,7.43
2019-02-09T04:08:00.678Z,7.10
2019-02-09T04:10:29.436Z,7.27
2019-02-09T04:12:58.047Z,6.63
2019-02-09T04:15:27.716Z,6.93
2019-02-09T04:17:56.637Z,7.07
2019-02-09T04:20:26.250Z,6.33
2019-02-09T04:22:55.314Z,6.30
2019-02-09T04:25:24.336Z,6.20
2019-02-09T04:27:53.158Z,7.07
2019-02-09T04:30:24.208Z,6.30
2019-02-09T04:32:52.860Z,6.73
2019-02-09T04:35:21.572Z,6.50
2019-02-09T04:37:50.453Z,7.03
2019-02-09T04:40:21.562Z,7.73
2019-02-09T04:42:50.190Z,7.57
2019-02-09T04:45:19.353Z,8.97
2019-02-09T04:47:48.014Z,8.93
2019-02-09T04:50:17.379Z,7.53
2019-02-09T04:52:46.050Z,8.93
2019-02-09T04:55:19.713Z,7.90
2019-02-09T04:57:48.344Z,7.77
2019-02-09T05:00:27.771Z,8.17
2019-02-09T05:02:56.859Z,8.53
2019-02-09T05:05:26.421Z,8.87
2019-02-09T05:07:55.513Z,8.63
2019-02-09T05:10:25.136Z,8.07
2019-02-09T05:12:53.785Z,8.20
2019-02-09T05:15:22.856Z,8.20
2019-02-09T05:17:51.493Z,8.50
2019-02-09T05:20:25.376Z,8.53
2019-02-09T05:22:54.632Z,8.17
2019-02-09T05:25:23.555Z,9.60
2019-02-09T05:27:52.390Z,10.17
2019-02-09T05:30:28.322Z,10.93
2019-02-09T05:32:57.259Z,10.50
2019-02-09T05:35:26.380Z,9.33
2019-02-09T05:37:55.043Z,8.47
2019-02-09T05:40:25.273Z,8.73
2019-02-09T05:42:54.000Z,8.67
2019-02-09T05:45:27.268Z,8.57
2019-02-09T05:47:55.894Z,10.87
2019-02-09T05:50:24.824Z,10.30
2019-02-09T05:52:53.647Z,11.00
2019-02-09T05:55:22.281Z,10.20
2019-02-09T05:57:50.906Z,10.50
2019-02-09T06:00:35.167Z,9.77
2019-02-09T06:03:03.896Z,11.40
2019-02-09T06:05:32.603Z,8.30
2019-02-09T06:08:01.228Z,11.37
2019-02-09T06:10:29.858Z,10.47
2019-02-09T06:12:58.508Z,10.90
2019-02-09T06:15:28.707Z,10.97
2019-02-09T06:17:57.342Z,11.00
2019-02-09T06:20:30.694Z,9.23
2019-02-09T06:22:59.718Z,9.57
2019-02-09T06:25:28.460Z,11.43
2019-02-09T06:27:57.084Z,11.93
2019-02-09T06:30:33.051Z,10.03
2019-02-09T06:33:01.923Z,11.10
2019-02-09T06:35:30.836Z,8.57
2019-02-09T06:37:59.660Z,10.03
2019-02-09T06:40:28.555Z,11.27
2019-02-09T06:42:57.274Z,13.33
2019-02-09T06:45:27.000Z,8.97
2019-02-09T06:48:15.100Z,9.90
2019-02-09T06:50:43.698Z,9.07
2019-02-09T06:53:12.324Z,9.77
2019-02-09T06:55:40.873Z,9.47
2019-02-09T06:58:09.490Z,10.97
2019-02-09T07:00:37.981Z,11.73
2019-02-09T07:03:06.627Z,11.90
2019-02-09T07:05:35.258Z,19.27
2019-02-09T07:08:04.407Z,22.43
2019-02-09T07:10:35.905Z,27.80
2019-02-09T07:13:04.953Z,25.30
2019-02-09T07:15:35.941Z,25.17
2019-02-09T07:18:05.790Z,22.17
2019-02-09T07:20:34.370Z,22.73
2019-02-09T07:23:02.992Z,22.07
2019-02-09T07:25:31.656Z,21.50
2019-02-09T07:28:00.364Z,19.47
2019-02-09T07:30:30.900Z,14.30
2019-02-09T07:33:00.337Z,19.23
2019-02-09T07:35:28.956Z,20.33
2019-02-09T07:37:57.583Z,16.57
2019-02-09T07:40:27.146Z,15.53
2019-02-09T07:42:56.074Z,13.68
2019-02-09T07:45:31.215Z,11.50
2019-02-09T07:47:59.865Z,8.43
2019-02-09T07:50:28.794Z,9.00
2019-02-09T07:52:57.714Z,7.62
2019-02-09T07:55:27.282Z,12.80
2019-02-09T07:57:55.922Z,11.20
2019-02-09T08:00:26.981Z,8.68
2019-02-09T08:02:55.950Z,38.92
2019-02-09T08:05:26.486Z,23.85
2019-02-09T08:07:55.216Z,13.30
2019-02-09T08:10:32.665Z,11.00
2019-02-09T08:13:02.684Z,9.63
2019-02-09T08:15:32.514Z,9.63
2019-02-09T08:18:01.569Z,8.38
2019-02-09T08:20:31.398Z,13.80
2019-02-09T08:23:01.909Z,9.08
2019-02-09T08:25:33.745Z,10.98
2019-02-09T08:28:02.568Z,10.00
2019-02-09T08:30:42.407Z,9.18
2019-02-09T08:33:11.128Z,9.30
2019-02-09T08:35:40.376Z,8.58
2019-02-09T08:38:09.893Z,10.35
2019-02-09T08:40:38.621Z,9.10
2019-02-09T08:43:07.258Z,8.95
2019-02-09T08:45:35.911Z,9.93
2019-02-09T08:48:05.130Z,9.30
2019-02-09T08:50:35.962Z,11.12
2019-02-09T08:53:04.630Z,12.43
2019-02-09T08:55:33.251Z,10.95
2019-02-09T08:58:01.987Z,11.88
2019-02-09T09:00:33.100Z,11.75
2019-02-09T09:03:01.660Z,15.45
2019-02-09T09:05:30.389Z,13.43
2019-02-09T09:07:59.249Z,11.97
2019-02-09T09:10:31.773Z,12.13
2019-02-09T09:13:01.101Z,12.03
2019-02-09T09:15:44.224Z,12.58
2019-02-09T09:18:12.858Z,13.05
2019-02-09T09:20:49.969Z,13.15
2019-02-09T09:23:26.044Z,13.55
2019-02-09T09:25:54.948Z,13.48
2019-02-09T09:28:23.697Z,13.60
2019-02-09T09:30:52.182Z,14.18
2019-02-09T09:33:21.004Z,12.10
2019-02-09T09:35:49.639Z,13.83
2019-02-09T09:38:18.267Z,12.73
2019-02-09T09:40:47.150Z,14.07
2019-02-09T09:43:15.780Z,13.40
2019-02-09T09:45:45.112Z,12.45
2019-02-09T09:48:19.592Z,12.37
2019-02-09T09:50:48.219Z,13.10
2019-02-09T09:53:16.853Z,12.83
2019-02-09T09:55:45.452Z,33.92
2019-02-09T09:58:14.085Z,18.37
2019-02-09T10:00:42.757Z,12.80
2019-02-09T10:03:11.413Z,11.65
2019-02-09T10:05:40.053Z,11.70
2019-02-09T10:08:09.018Z,10.48
2019-02-09T10:10:37.705Z,10.95
2019-02-09T10:13:06.730Z,11.22
2019-02-09T10:15:35.563Z,12.33
2019-02-09T10:18:04.887Z,12.45
2019-02-09T10:20:33.562Z,10.90
2019-02-09T10:23:02.239Z,10.30
2019-02-09T10:25:30.908Z,11.00
2019-02-09T10:27:59.533Z,11.00
2019-02-09T10:30:32.521Z,11.75
2019-02-09T10:33:01.283Z,11.10
2019-02-09T10:35:30.004Z,12.00
2019-02-09T10:37:58.742Z,12.33
2019-02-09T10:40:32.843Z,12.10
2019-02-09T10:43:02.244Z,15.53
2019-02-09T10:45:31.865Z,13.25
2019-02-09T10:48:02.024Z,11.55
2019-02-09T10:50:42.127Z,12.20
2019-02-09T10:53:11.146Z,13.50
2019-02-09T10:55:39.967Z,13.93
2019-02-09T10:58:08.933Z,14.50
2019-02-09T11:00:46.359Z,14.07
2019-02-09T11:03:15.288Z,12.97
2019-02-09T11:05:44.009Z,15.53
2019-02-09T11:08:12.718Z,13.43
2019-02-09T11:10:41.440Z,13.23
2019-02-09T11:13:10.057Z,14.50
2019-02-09T11:15:38.784Z,13.80
2019-02-09T11:18:07.813Z,15.60
2019-02-09T11:20:36.444Z,12.70
2019-02-09T11:23:05.864Z,12.43
2019-02-09T11:25:34.496Z,14.40
2019-02-09T11:28:03.134Z,13.50
2019-02-09T11:30:32.094Z,15.30
2019-02-09T11:33:02.528Z,15.28
2019-02-09T11:35:31.000Z,15.35
2019-02-09T11:38:00.028Z,14.38
2019-02-09T11:40:29.870Z,14.05
2019-02-09T11:42:59.390Z,13.62
2019-02-09T11:45:33.381Z,14.07
2019-02-09T11:48:02.112Z,13.32
2019-02-09T11:50:30.740Z,15.05
2019-02-09T11:52:59.637Z,14.80
2019-02-09T11:55:28.272Z,15.20
2019-02-09T11:57:56.932Z,16.17
2019-02-09T12:00:36.847Z,16.97
2019-02-09T12:03:14.642Z,13.13
2019-02-09T12:05:36.425Z,12.47
2019-02-09T12:08:06.597Z,12.65
2019-02-09T12:10:35.221Z,12.90
2019-02-09T12:13:04.155Z,14.15
2019-02-09T12:15:35.197Z,14.13
2019-02-09T12:18:04.561Z,12.98
2019-02-09T12:20:33.181Z,15.18
2019-02-09T12:23:01.856Z,13.58
2019-02-09T12:25:32.857Z,14.78
2019-02-09T12:28:01.485Z,14.83
2019-02-09T12:30:32.668Z,14.75
2019-02-09T12:33:01.848Z,15.30
2019-02-09T12:35:30.565Z,16.00
2019-02-09T12:37:59.305Z,14.90
2019-02-09T12:40:34.636Z,13.72
2019-02-09T12:43:03.268Z,13.95
2019-02-09T12:45:34.740Z,14.35
2019-02-09T12:48:03.387Z,16.35
2019-02-09T12:50:32.409Z,15.18
2019-02-09T12:53:01.076Z,16.15
2019-02-09T12:55:29.910Z,14.75
2019-02-09T12:57:58.551Z,15.13
2019-02-09T13:00:29.302Z,14.38
2019-02-09T13:03:06.669Z,14.80
2019-02-09T13:05:35.331Z,15.48
2019-02-09T13:08:04.168Z,15.43
2019-02-09T13:10:32.730Z,16.10
2019-02-09T13:13:01.264Z,18.35
2019-02-09T13:15:31.637Z,15.13
2019-02-09T13:18:00.268Z,16.55
2019-02-09T13:20:31.159Z,16.87
2019-02-09T13:23:00.409Z,17.60
2019-02-09T13:25:29.046Z,15.93
2019-02-09T13:27:57.916Z,17.07
2019-02-09T13:30:35.274Z,17.75
2019-02-09T13:33:04.024Z,15.88
2019-02-09T13:35:32.706Z,16.07
2019-02-09T13:38:02.351Z,17.07
2019-02-09T13:40:31.113Z,15.58
2019-02-09T13:43:00.256Z,16.67
2019-02-09T13:45:33.911Z,18.87
2019-02-09T13:48:02.560Z,16.35
2019-02-09T13:50:32.481Z,18.65
2019-02-09T13:53:01.105Z,17.90
2019-02-09T13:55:29.779Z,18.60
2019-02-09T13:57:58.344Z,18.77
2019-02-09T14:00:29.357Z,18.50
2019-02-09T14:05:46.204Z,18.45
2019-02-09T14:08:14.729Z,19.62
2019-02-09T14:10:43.369Z,19.67
2019-02-09T14:13:14.596Z,52.98
2019-02-09T14:15:42.346Z,26.70
2019-02-09T14:18:11.666Z,19.85
2019-02-09T14:20:40.398Z,96.40
2019-02-09T14:23:09.092Z,37.73
2019-02-09T14:25:37.845Z,63.05
2019-02-09T14:28:07.355Z,168.00
2019-02-09T14:30:38.962Z,76.10
2019-02-09T14:33:12.018Z,117.37
2019-02-09T14:35:42.448Z,79.60
2019-02-09T14:38:11.126Z,47.13
2019-02-09T14:40:39.752Z,47.13
2019-02-09T14:43:09.480Z,46.87
2019-02-09T14:45:45.810Z,28.73
2019-02-09T14:48:14.376Z,30.47
2019-02-09T14:50:43.010Z,55.90
2019-02-09T14:53:12.386Z,33.30
2019-02-09T14:55:41.018Z,27.55
2019-02-09T14:58:09.654Z,95.32
2019-02-09T15:00:46.746Z,27.80
2019-02-09T15:03:15.781Z,32.20
2019-02-09T15:05:44.817Z,24.05
2019-02-09T15:08:13.472Z,20.20
2019-02-09T15:10:42.102Z,59.55
2019-02-09T15:13:12.193Z,21.27
2019-02-09T15:15:59.406Z,17.25
2019-02-09T15:18:28.035Z,16.02
2019-02-09T15:21:02.149Z,19.07
2019-02-09T15:23:30.750Z,37.15
2019-02-09T15:25:59.385Z,25.57
2019-02-09T15:28:28.137Z,22.23
2019-02-09T15:30:56.761Z,22.50
2019-02-09T15:33:25.317Z,21.13
2019-02-09T15:35:53.940Z,22.87
2019-02-09T15:38:22.532Z,20.77
2019-02-09T15:40:51.152Z,20.60
2019-02-09T15:43:19.788Z,25.92
2019-02-09T15:45:48.548Z,21.40
2019-02-09T15:48:17.096Z,22.40
2019-02-09T15:50:45.760Z,22.40
2019-02-09T15:53:14.385Z,22.73
2019-02-09T15:55:42.952Z,23.37
2019-02-09T15:58:11.633Z,23.90
2019-02-09T16:00:40.311Z,23.70
2019-02-09T16:03:08.933Z,22.62
2019-02-09T16:05:37.486Z,23.50
2019-02-09T16:08:07.653Z,22.57
2019-02-09T16:10:37.335Z,22.33
2019-02-09T16:13:07.580Z,22.00
2019-02-09T16:15:36.199Z,22.57
2019-02-09T16:18:06.129Z,21.57
2019-02-09T16:20:35.945Z,22.87
2019-02-09T16:23:05.309Z,21.83
2019-02-09T16:25:33.944Z,26.27
2019-02-09T16:28:02.579Z,28.57
2019-02-09T16:30:31.644Z,29.23
2019-02-09T16:33:00.280Z,31.83
2019-02-09T16:35:32.767Z,31.53
2019-02-09T16:38:01.427Z,31.77
2019-02-09T16:40:34.211Z,33.23
2019-02-09T16:43:02.845Z,31.93
2019-02-09T16:45:36.046Z,31.83
2019-02-09T16:48:06.265Z,32.07
2019-02-09T16:50:34.905Z,31.67
2019-02-09T16:53:03.505Z,33.23
2019-02-09T16:55:32.134Z,37.53
2019-02-09T16:58:00.637Z,34.73
2019-02-09T17:00:32.266Z,37.67
2019-02-09T17:03:00.999Z,38.33
2019-02-09T17:05:29.838Z,35.73
2019-02-09T17:07:58.661Z,39.87
2019-02-09T17:10:27.295Z,62.37
2019-02-09T17:12:55.926Z,56.40
2019-02-09T17:15:26.851Z,72.67
2019-02-09T17:17:55.488Z,66.90
2019-02-09T17:20:24.303Z,62.80
2019-02-09T17:22:53.070Z,47.97
2019-02-09T17:25:23.960Z,45.27
2019-02-09T17:27:52.974Z,41.80
2019-02-09T17:30:29.997Z,36.57
2019-02-09T17:32:58.616Z,36.03
2019-02-09T17:35:27.242Z,33.17
2019-02-09T17:37:56.334Z,36.40
2019-02-09T17:40:33.456Z,34.73
2019-02-09T17:43:02.121Z,32.97
2019-02-09T17:45:45.506Z,34.80
2019-02-09T17:48:14.171Z,33.57
2019-02-09T17:50:42.729Z,37.17
2019-02-09T17:53:11.351Z,36.10
2019-02-09T17:55:40.024Z,40.17
2019-02-09T17:58:08.762Z,42.47
2019-02-09T18:00:41.721Z,41.70
2019-02-09T18:03:10.561Z,42.60
2019-02-09T18:05:39.182Z,42.77
2019-02-09T18:08:08.296Z,44.73
2019-02-09T18:10:37.322Z,50.23
2019-02-09T18:13:06.448Z,47.63
2019-02-09T18:15:35.085Z,50.60
2019-02-09T18:18:09.611Z,54.53
2019-02-09T18:20:38.483Z,51.30
2019-02-09T18:23:07.085Z,48.30
2019-02-09T18:25:36.002Z,54.07
2019-02-09T18:28:05.737Z,50.43
2019-02-09T18:30:34.958Z,51.13
2019-02-09T18:33:03.619Z,47.73
2019-02-09T18:35:32.177Z,47.77
2019-02-09T18:38:00.753Z,54.13
2019-02-09T18:40:29.522Z,47.23
2019-02-09T18:42:58.151Z,43.87
2019-02-09T18:45:29.242Z,46.67
2019-02-09T18:47:57.907Z,42.97
2019-02-09T18:50:31.677Z,45.77
2019-02-09T18:53:01.867Z,41.20
2019-02-09T18:55:31.415Z,39.80
2019-02-09T18:58:00.246Z,41.90
2019-02-09T19:00:31.822Z,40.87
2019-02-09T19:03:00.859Z,37.03
2019-02-09T19:05:29.476Z,38.87
2019-02-09T19:07:58.144Z,39.23
2019-02-09T19:10:28.276Z,43.83
2019-02-09T19:12:56.895Z,44.37
2019-02-09T19:15:27.830Z,44.27
2019-02-09T19:17:57.513Z,46.67
2019-02-09T19:20:31.512Z,42.50
2019-02-09T19:23:00.413Z,39.90
2019-02-09T19:25:29.531Z,39.87
2019-02-09T19:27:58.178Z,34.47
2019-02-09T19:30:27.649Z,38.03
2019-02-09T19:32:56.364Z,38.47
2019-02-09T19:35:24.983Z,37.13
2019-02-09T19:37:54.114Z,37.87
2019-02-09T19:40:28.834Z,36.50
2019-02-09T19:42:59.938Z,37.60
2019-02-09T19:45:36.912Z,34.97
2019-02-09T19:48:07.254Z,33.83
2019-02-09T19:50:35.877Z,32.50
2019-02-09T19:53:05.003Z,31.97
2019-02-09T19:55:35.259Z,33.30
2019-02-09T19:58:04.800Z,34.40
2019-02-09T20:00:42.351Z,33.40
2019-02-09T20:03:11.051Z,34.30
2019-02-09T20:05:39.677Z,39.20
2019-02-09T20:08:09.852Z,38.03
2019-02-09T20:10:43.239Z,40.70
2019-02-09T20:13:13.062Z,41.33
2019-02-09T20:15:41.720Z,40.60
2019-02-09T20:18:11.536Z,43.17
2019-02-09T20:20:46.846Z,47.27
2019-02-09T20:23:10.568Z,48.73
2019-02-09T20:25:39.175Z,49.10
2019-02-09T20:28:08.289Z,49.97
2019-02-09T20:30:38.522Z,50.23
2019-02-09T20:33:07.545Z,47.00
2019-02-09T20:35:36.278Z,49.03
2019-02-09T20:38:06.981Z,45.40
2019-02-09T20:40:53.220Z,45.73
2019-02-09T20:43:22.783Z,44.80
2019-02-09T20:45:51.325Z,48.27
2019-02-09T20:48:19.878Z,47.93
2019-02-09T20:50:48.541Z,47.50
2019-02-09T20:53:17.181Z,46.50
2019-02-09T20:55:45.915Z,49.23
2019-02-09T20:58:14.993Z,50.23
2019-02-09T21:00:43.610Z,44.90
2019-02-09T21:03:12.246Z,41.17
2019-02-09T21:05:40.919Z,44.50
2019-02-09T21:08:09.600Z,46.80
2019-02-09T21:10:45.060Z,47.67
2019-02-09T21:13:13.665Z,48.80
2019-02-09T21:15:42.289Z,49.83
2019-02-09T21:18:10.920Z,35.27
2019-02-09T21:20:39.516Z,33.57
2019-02-09T21:23:08.158Z,48.90
2019-02-09T21:25:41.920Z,41.10
2019-02-09T21:28:10.782Z,45.60
2019-02-09T21:30:39.348Z,35.70
2019-02-09T21:33:07.983Z,39.87
2019-02-09T21:35:43.472Z,35.50
2019-02-09T21:38:07.143Z,34.10
2019-02-09T21:40:35.862Z,32.10
2019-02-09T21:43:04.948Z,30.13
2019-02-09T21:45:33.617Z,34.73
2019-02-09T21:48:02.061Z,29.20
2019-02-09T21:50:35.850Z,25.70
2019-02-09T21:53:05.468Z,23.57
2019-02-09T21:55:34.028Z,22.37
2019-02-09T21:58:02.687Z,25.47
2019-02-09T22:00:36.155Z,31.83
2019-02-09T22:03:06.190Z,31.70
2019-02-09T22:05:34.867Z,34.87
2019-02-09T22:08:03.500Z,35.53
2019-02-09T22:10:33.989Z,37.67
2019-02-09T22:13:03.178Z,42.10
2019-02-09T22:15:38.351Z,45.63
2019-02-09T22:18:03.153Z,42.60
2019-02-09T22:20:31.745Z,41.27
2019-02-09T22:23:00.377Z,42.53
2019-02-09T22:25:30.099Z,40.70
2019-02-09T22:27:59.088Z,44.33
2019-02-09T22:30:32.191Z,43.37
2019-02-09T22:33:01.170Z,41.57
2019-02-09T22:35:30.542Z,43.97
2019-02-09T22:37:59.862Z,43.33
2019-02-09T22:40:40.313Z,43.53
2019-02-09T22:43:09.065Z,42.80
2019-02-09T22:45:37.766Z,42.10
2019-02-09T22:48:08.047Z,45.93
2019-02-09T22:50:39.347Z,37.67
2019-02-09T22:53:07.972Z,39.37
2019-02-09T22:55:38.108Z,31.17
2019-02-09T22:58:07.028Z,40.53
2019-02-09T23:00:54.056Z,44.07
2019-02-09T23:03:25.659Z,38.57
2019-02-09T23:06:12.662Z,40.13
2019-02-09T23:08:42.793Z,43.17
2019-02-09T23:11:11.427Z,41.33
2019-02-09T23:13:40.096Z,40.53
2019-02-09T23:16:08.643Z,40.87
2019-02-09T23:18:37.205Z,41.37
2019-02-09T23:21:05.897Z,42.97
2019-02-09T23:23:34.528Z,43.93
2019-02-09T23:26:03.018Z,43.90
2019-02-09T23:28:31.549Z,45.23
2019-02-09T23:31:00.189Z,44.37
2019-02-09T23:33:28.817Z,44.33
2019-02-09T23:35:57.363Z,44.47
2019-02-09T23:38:25.981Z,45.20
2019-02-09T23:40:54.475Z,46.20
2019-02-09T23:43:23.290Z,44.37
2019-02-09T23:45:51.899Z,44.13
2019-02-09T23:48:20.592Z,45.80
2019-02-09T23:50:49.133Z,44.87
2019-02-09T23:53:17.634Z,47.77
2019-02-09T23:55:46.271Z,49.27
2019-02-09T23:58:14.937Z,48.70
